Time;durP1;ratioP1;P1;durP2;ratioP2;P2;SDS_P1;SDS_P2;PMS_P1;PMS_P2;Temp;Humidity;BMP_temperature;BMP_pressure;BME280_temperature;BME280_humidity;BME280_pressure;Samples;Min_cycle;Max_cycle;Signal;HPM_P1;HPM_P2
2020/12/01 04:43:56;;;;;;;;;;;5.70;65.50;;;;;;5005412;28;117786;-91
2020/12/01 04:46:25;;;;;;;;;;;5.70;65.50;;;;;;4992559;22;117699;-86
2020/12/01 04:48:58;;;;;;;;;;;5.70;65.50;;;;;;4970649;28;118118;-86
2020/12/01 04:51:23;;;;;;;;;;;5.70;65.50;;;;;;4970302;28;117677;-86
2020/12/01 04:54:09;;;;;;;;;;;5.70;65.50;;;;;;4969178;28;120551;-86
2020/12/01 04:56:53;;;;;;;;;;;5.70;65.50;;;;;;4968767;28;117787;-86
2020/12/01 04:59:18;;;;;;;;;;;5.70;65.60;;;;;;4970243;28;117396;-86
2020/12/01 05:01:48;;;;;;;;;;;5.70;65.60;;;;;;4970204;28;117826;-86
2020/12/01 05:04:28;;;;;;;;;;;5.70;65.60;;;;;;4985687;28;117461;-86
2020/12/01 05:07:08;;;;;;;;;;;5.70;65.60;;;;;;4968830;28;119886;-86
2020/12/01 05:09:47;;;;;;;;;;;5.70;65.60;;;;;;4970137;28;117470;-86
2020/12/01 05:12:20;;;;;;;;;;;5.70;65.70;;;;;;4970209;28;117435;-86
2020/12/01 05:15:12;;;;;;;;;;;5.70;66.30;;;;;;4968787;28;119786;-86
2020/12/01 05:17:43;;;;;;;;;;;5.70;65.70;;;;;;4966492;28;119724;-86
2020/12/01 05:20:09;;;;;;;;;;;5.70;65.70;;;;;;4970022;28;117284;-86
2020/12/01 05:22:34;;;;;;;;;;;5.70;65.70;;;;;;4970428;28;117969;-86
2020/12/01 05:25:00;;;;;;;;;;;5.70;65.70;;;;;;4969105;28;120164;-86
2020/12/01 05:27:26;;;;;;;;;;;5.70;65.70;;;;;;4986439;28;117963;-86
2020/12/01 05:29:55;;;;;;;;;;;5.70;65.70;;;;;;4970461;28;117500;-86
2020/12/01 05:32:28;;;;;;;;;;;5.70;65.70;;;;;;4970362;28;117464;-86
2020/12/01 05:34:53;;;;;;;;;;;5.70;65.70;;;;;;4968210;28;119619;-86
2020/12/01 05:37:19;;;;;;;;;;;5.70;65.70;;;;;;4969045;28;119152;-86
2020/12/01 05:39:45;;;;;;;;;;;5.70;65.80;;;;;;4986797;28;117439;-86
2020/12/01 05:42:20;;;;;;;;;;;5.70;65.80;;;;;;4969823;28;117779;-86
2020/12/01 05:44:58;;;;;;;;;;;5.70;65.80;;;;;;4968078;28;119743;-86
2020/12/01 05:47:39;;;;;;;;;;;5.70;65.80;;;;;;4968300;28;120373;-86
2020/12/01 05:50:09;;;;;;;;;;;5.70;65.80;;;;;;4969536;28;117728;-86
2020/12/01 05:52:45;;;;;;;;;;;5.70;65.80;;;;;;4969660;28;117428;-86
2020/12/01 05:55:17;;;;;;;;;;;5.70;65.90;;;;;;4968207;28;120624;-86
2020/12/01 05:57:42;;;;;;;;;;;5.70;65.80;;;;;;4986242;28;117742;-86
2020/12/01 06:00:14;;;;;;;;;;;5.70;65.80;;;;;;4986093;28;117555;-86
2020/12/01 06:02:55;;;;;;;;;;;5.70;65.90;;;;;;4969607;28;118030;-86
2020/12/01 06:05:22;;;;;;;;;;;5.70;65.90;;;;;;4968270;28;121034;-86
2020/12/01 06:07:48;;;;;;;;;;;5.70;65.90;;;;;;4967992;28;120108;-86
2020/12/01 06:10:17;;;;;;;;;;;5.70;65.90;;;;;;4969361;28;117882;-86
2020/12/01 06:13:00;;;;;;;;;;;5.70;65.90;;;;;;4969102;28;117744;-86
2020/12/01 06:15:26;;;;;;;;;;;5.70;65.90;;;;;;4967884;28;121277;-86
2020/12/01 06:18:07;;;;;;;;;;;5.70;65.90;;;;;;4967961;28;120149;-86
2020/12/01 06:20:35;;;;;;;;;;;5.70;65.90;;;;;;4969137;28;117366;-86
2020/12/01 06:23:15;;;;;;;;;;;5.70;65.90;;;;;;4987145;28;117522;-86
2020/12/01 06:25:48;;;;;;;;;;;5.70;66.00;;;;;;4967442;28;121143;-86
2020/12/01 06:28:32;;;;;;;;;;;5.70;65.90;;;;;;4967802;28;120113;-86
2020/12/01 06:31:11;;;;;;;;;;;5.70;65.90;;;;;;4968882;28;117385;-86
2020/12/01 06:33:43;;;;;;;;;;;5.70;66.00;;;;;;4969020;28;117552;-86
2020/12/01 06:36:23;;;;;;;;;;;5.70;66.00;;;;;;4967665;28;120787;-86
2020/12/01 06:39:09;;;;;;;;;;;5.70;66.00;;;;;;4967569;28;120932;-86
2020/12/01 06:41:36;;;;;;;;;;;5.70;66.00;;;;;;4968240;28;117474;-86
2020/12/01 06:44:01;;;;;;;;;;;5.70;66.00;;;;;;4968924;28;117822;-86
2020/12/01 06:46:44;;;;;;;;;;;5.70;66.10;;;;;;4967803;28;121184;-86
2020/12/01 06:49:35;;;;;;;;;;;5.70;66.00;;;;;;4971092;28;119437;-86
2020/12/01 06:52:03;;;;;;;;;;;5.70;66.10;;;;;;4969752;28;118002;-86
2020/12/01 06:54:28;;;;;;;;;;;5.70;66.10;;;;;;4972243;28;118183;-86
2020/12/01 06:56:57;;;;;;;;;;;5.70;66.10;;;;;;4971292;28;120009;-86
2020/12/01 06:59:22;;;;;;;;;;;5.70;66.10;;;;;;4971023;28;119930;-86
2020/12/01 07:01:48;;;;;;;;;;;5.70;66.20;;;;;;4972022;28;117542;-86
2020/12/01 07:04:13;;;;;;;;;;;5.70;66.10;;;;;;4971941;28;117823;-86
2020/12/01 07:06:52;;;;;;;;;;;5.70;66.10;;;;;;4970953;28;120938;-86
2020/12/01 07:09:26;;;;;;;;;;;5.70;66.10;;;;;;4987650;28;117345;-85
2020/12/01 07:11:55;;;;;;;;;;;5.70;66.10;;;;;;4972097;28;117356;-85
2020/12/01 07:14:21;;;;;;;;;;;5.70;66.20;;;;;;4971862;28;117912;-85
2020/12/01 07:16:47;;;;;;;;;;;5.70;66.20;;;;;;4970524;28;121812;-85
2020/12/01 07:19:14;;;;;;;;;;;5.70;66.20;;;;;;4970644;28;120533;-86
2020/12/01 07:21:54;;;;;;;;;;;5.70;66.20;;;;;;4971993;28;117572;-86
2020/12/01 07:24:39;;;;;;;;;;;5.70;66.20;;;;;;4988831;28;117444;-85
2020/12/01 07:27:11;;;;;;;;;;;5.70;66.20;;;;;;4970697;28;120620;-86
2020/12/01 07:29:57;;;;;;;;;;;5.70;66.60;;;;;;4970590;28;119555;-86
2020/12/01 07:32:24;;;;;;;;;;;5.60;67.80;;;;;;4971769;28;117492;-86
2020/12/01 07:34:50;;;;;;;;;;;5.60;67.50;;;;;;4988778;28;117821;-86
2020/12/01 07:37:37;;;;;;;;;;;5.60;67.40;;;;;;4987379;28;118865;-85
2020/12/01 07:40:02;;;;;;;;;;;5.60;67.30;;;;;;4987861;28;117990;-85
2020/12/01 07:42:30;;;;;;;;;;;5.60;67.90;;;;;;4972124;28;117680;-85
2020/12/01 07:44:56;;;;;;;;;;;5.60;67.20;;;;;;4988346;28;117606;-85
2020/12/01 07:47:22;;;;;;;;;;;5.60;67.20;;;;;;4971215;28;121616;-85
2020/12/01 07:49:58;;;;;;;;;;;5.60;67.20;;;;;;4971018;28;120315;-85
2020/12/01 07:52:33;;;;;;;;;;;5.60;67.10;;;;;;4972328;28;117561;-85
2020/12/01 07:55:00;;;;;;;;;;;5.60;67.10;;;;;;4972098;28;117527;-85
2020/12/01 07:57:26;;;;;;;;;;;5.60;67.10;;;;;;4971006;28;120516;-85
2020/12/01 07:59:51;;;;;;;;;;;5.70;67.10;;;;;;4969999;28;120410;-85
2020/12/01 08:02:18;;;;;;;;;;;5.70;67.10;;;;;;4971966;28;117324;-85
2020/12/01 08:04:43;;;;;;;;;;;5.70;67.10;;;;;;4972444;28;117707;-85
2020/12/01 08:07:15;;;;;;;;;;;5.70;67.20;;;;;;4970646;28;119778;-85
2020/12/01 08:09:41;;;;;;;;;;;5.60;67.10;;;;;;4987057;28;117830;-85
2020/12/01 08:12:07;;;;;;;;;;;5.70;67.20;;;;;;4971524;28;117543;-85
2020/12/01 08:14:33;;;;;;;;;;;5.70;67.20;;;;;;4987891;28;117856;-85
2020/12/01 08:17:10;;;;;;;;;;;5.70;67.20;;;;;;4970276;28;119742;-85
2020/12/01 08:19:36;;;;;;;;;;;5.70;67.20;;;;;;4969935;28;120747;-85
2020/12/01 08:22:01;;;;;;;;;;;5.70;67.10;;;;;;4971171;28;117539;-85
2020/12/01 08:24:27;;;;;;;;;;;5.70;67.20;;;;;;4970583;28;117493;-85
2020/12/01 08:27:03;;;;;;;;;;;5.70;67.20;;;;;;4969719;28;121162;-85
2020/12/01 08:29:32;;;;;;;;;;;5.70;67.20;;;;;;4986405;28;117454;-85
2020/12/01 08:32:05;;;;;;;;;;;5.60;67.20;;;;;;4987521;28;117740;-85
2020/12/01 08:35:10;;;;;;;;;;;5.70;67.20;;;;;;4970741;28;117491;-85
2020/12/01 08:37:54;;;;;;;;;;;5.70;67.20;;;;;;4929225;28;120486;-85
2020/12/01 08:40:36;;;;;;;;;;;5.70;67.10;;;;;;4929616;28;118831;-85
2020/12/01 08:43:20;;;;;;;;;;;5.70;67.10;;;;;;4942035;28;117954;-86
2020/12/01 08:46:04;;;;;;;;;;;5.60;67.00;;;;;;4969666;28;117777;-86
2020/12/01 08:48:41;;;;;;;;;;;5.70;67.10;;;;;;4969334;28;120918;-86
2020/12/01 08:51:13;;;;;;;;;;;5.70;67.20;;;;;;4969256;28;120564;-86
2020/12/01 08:53:47;;;;;;;;;;;5.70;67.20;;;;;;4970244;28;117342;-86
2020/12/01 08:56:36;;;;;;;;;;;5.70;67.20;;;;;;4970018;28;117375;-86
2020/12/01 08:59:02;;;;;;;;;;;5.70;67.10;;;;;;4968968;28;120869;-86
2020/12/01 09:01:27;;;;;;;;;;;5.60;67.10;;;;;;4969061;28;120471;-86
2020/12/01 09:03:57;;;;;;;;;;;5.70;67.10;;;;;;4969991;28;117711;-86
2020/12/01 09:06:30;;;;;;;;;;;5.70;67.20;;;;;;4969997;28;117772;-85
2020/12/01 09:08:59;;;;;;;;;;;5.70;67.10;;;;;;4985720;28;118609;-85
2020/12/01 09:14:03;;;;;;;;;;;5.70;67.20;;;;;;4986710;28;117568;-85
2020/12/01 09:19:27;;;;;;;;;;;5.70;67.10;;;;;;4982625;28;118118;-86
2020/12/01 09:21:59;;;;;;;;;;;5.70;67.20;;;;;;4986068;28;117709;-85
2020/12/01 09:24:26;;;;;;;;;;;5.70;67.20;;;;;;4969469;28;117513;-85
2020/12/01 09:26:59;;;;;;;;;;;5.70;67.20;;;;;;4986805;28;117278;-85
2020/12/01 09:29:24;;;;;;;;;;;5.70;67.20;;;;;;4968769;28;120182;-85
2020/12/01 09:31:50;;;;;;;;;;;5.70;67.20;;;;;;4968673;28;122507;-86
2020/12/01 09:34:15;;;;;;;;;;;5.70;67.20;;;;;;4969487;28;117548;-86
2020/12/01 09:36:41;;;;;;;;;;;5.70;67.20;;;;;;4969521;28;117566;-86
2020/12/01 09:39:06;;;;;;;;;;;5.70;67.20;;;;;;4968624;28;121279;-86
2020/12/01 09:41:32;;;;;;;;;;;5.70;67.20;;;;;;4968499;28;120333;-86
2020/12/01 09:44:14;;;;;;;;;;;5.70;67.20;;;;;;4969563;28;117732;-86
2020/12/01 09:46:48;;;;;;;;;;;5.70;67.20;;;;;;4986408;28;117491;-86
2020/12/01 09:49:14;;;;;;;;;;;5.70;67.50;;;;;;4985503;28;117400;-86
2020/12/01 09:51:46;;;;;;;;;;;5.70;67.20;;;;;;4968348;28;120754;-86
2020/12/01 09:54:25;;;;;;;;;;;5.70;67.20;;;;;;4986818;28;117322;-85
2020/12/01 09:56:57;;;;;;;;;;;5.70;67.20;;;;;;4969938;28;117604;-85
2020/12/01 10:12:55;;;;;;;;;;;5.70;67.10;;;;;;4983041;28;117635;-87
2020/12/01 10:23:57;;;;;;;;;;;5.70;67.30;;;;;;4982479;28;117354;-90
2020/12/01 10:44:37;;;;;;;;;;;5.70;67.40;;;;;;5025170;28;117613;-89
2020/12/01 10:47:03;;;;;;;;;;;5.70;67.40;;;;;;5005872;28;117727;-89
2020/12/01 10:49:28;;;;;;;;;;;5.70;67.40;;;;;;4994698;23;118544;-87
2020/12/01 10:51:54;;;;;;;;;;;5.70;67.40;;;;;;4945670;28;120110;-87
2020/12/01 10:54:19;;;;;;;;;;;5.70;67.40;;;;;;4945725;28;120802;-87
2020/12/01 10:56:46;;;;;;;;;;;5.70;67.40;;;;;;4946564;28;117677;-88
2020/12/01 10:59:11;;;;;;;;;;;5.70;67.40;;;;;;4946298;28;118178;-88
2020/12/01 11:01:37;;;;;;;;;;;5.70;67.50;;;;;;4945322;28;120263;-88
2020/12/01 11:04:02;;;;;;;;;;;5.70;67.50;;;;;;4945262;28;119226;-87
2020/12/01 11:06:30;;;;;;;;;;;5.70;67.50;;;;;;4946287;28;117298;-87
2020/12/01 11:08:55;;;;;;;;;;;5.70;67.40;;;;;;4946119;28;117500;-87
2020/12/01 11:11:20;;;;;;;;;;;5.70;67.50;;;;;;4945103;28;120251;-87
2020/12/01 11:13:46;;;;;;;;;;;5.70;67.50;;;;;;4961561;28;117486;-87
2020/12/01 11:16:12;;;;;;;;;;;5.70;67.60;;;;;;4945907;28;117651;-88
2020/12/01 11:18:37;;;;;;;;;;;5.70;67.50;;;;;;4962657;28;117566;-88
2020/12/01 11:21:03;;;;;;;;;;;5.70;67.50;;;;;;4961439;28;118782;-88
2020/12/01 11:23:28;;;;;;;;;;;5.70;67.50;;;;;;4944895;28;119054;-88
2020/12/01 11:25:54;;;;;;;;;;;5.70;67.50;;;;;;4946036;28;117371;-88
2020/12/01 11:28:19;;;;;;;;;;;5.70;67.50;;;;;;4945651;28;117762;-88
2020/12/01 11:30:45;;;;;;;;;;;5.70;67.50;;;;;;4944682;28;120226;-88
2020/12/01 11:33:10;;;;;;;;;;;5.70;67.50;;;;;;4944799;28;120066;-88
2020/12/01 11:35:36;;;;;;;;;;;5.70;68.20;;;;;;4945628;28;117553;-88
2020/12/01 11:38:01;;;;;;;;;;;5.70;67.60;;;;;;4945681;28;117830;-88
2020/12/01 11:40:27;;;;;;;;;;;5.70;67.60;;;;;;4944587;28;120093;-87
2020/12/01 11:42:53;;;;;;;;;;;5.70;67.50;;;;;;4944592;28;119126;-87
2020/12/01 11:45:18;;;;;;;;;;;5.70;67.60;;;;;;4933914;28;117434;-87
2020/12/01 11:47:43;;;;;;;;;;;5.70;67.60;;;;;;4932847;28;117344;-87
2020/12/01 11:50:09;;;;;;;;;;;5.70;67.60;;;;;;4930957;28;121121;-87
2020/12/01 11:52:34;;;;;;;;;;;5.70;67.60;;;;;;4931321;28;120661;-87
2020/12/01 11:55:00;;;;;;;;;;;5.70;67.60;;;;;;4932393;28;117497;-88
2020/12/01 11:57:25;;;;;;;;;;;5.70;67.60;;;;;;4932612;28;117399;-88
2020/12/01 11:59:51;;;;;;;;;;;5.70;67.60;;;;;;4947752;28;117615;-88
2020/12/01 12:02:16;;;;;;;;;;;5.70;67.60;;;;;;4931218;28;119392;-87
2020/12/01 12:04:42;;;;;;;;;;;5.70;67.70;;;;;;4932371;28;117550;-87
2020/12/01 12:07:07;;;;;;;;;;;5.70;67.60;;;;;;4932102;28;117510;-87
2020/12/01 12:09:33;;;;;;;;;;;5.70;67.70;;;;;;4930938;28;121239;-87
2020/12/01 12:11:58;;;;;;;;;;;5.70;67.70;;;;;;4930972;28;118680;-87
2020/12/01 12:14:24;;;;;;;;;;;5.70;67.70;;;;;;4932113;28;117360;-87
2020/12/01 12:16:49;;;;;;;;;;;5.70;67.70;;;;;;4932270;28;117364;-87
2020/12/01 12:19:15;;;;;;;;;;;5.70;67.80;;;;;;4930665;28;120404;-87
2020/12/01 12:21:40;;;;;;;;;;;5.70;67.70;;;;;;4930939;28;120268;-88
2020/12/01 12:24:06;;;;;;;;;;;5.70;68.30;;;;;;4948699;28;117376;-88
2020/12/01 12:26:31;;;;;;;;;;;5.70;67.80;;;;;;4932215;28;117341;-88
2020/12/01 12:28:57;;;;;;;;;;;5.70;67.80;;;;;;4930679;28;120246;-88
2020/12/01 12:31:23;;;;;;;;;;;5.70;67.80;;;;;;4931048;28;119288;-88
2020/12/01 12:33:48;;;;;;;;;;;5.70;67.80;;;;;;4931847;28;117534;-88
2020/12/01 12:36:14;;;;;;;;;;;5.70;67.80;;;;;;4931879;28;117864;-87
2020/12/01 12:38:39;;;;;;;;;;;5.70;67.70;;;;;;4947071;28;117654;-88
2020/12/01 12:41:05;;;;;;;;;;;5.70;67.80;;;;;;4947437;28;117807;-88
2020/12/01 12:43:30;;;;;;;;;;;5.70;67.80;;;;;;4931654;28;117443;-88
2020/12/01 12:45:56;;;;;;;;;;;5.70;67.80;;;;;;4931736;28;117823;-88
2020/12/01 12:48:22;;;;;;;;;;;5.70;67.80;;;;;;4930121;28;120156;-87
2020/12/01 12:50:47;;;;;;;;;;;5.70;67.70;;;;;;4930703;28;117593;-87
2020/12/01 12:53:13;;;;;;;;;;;5.70;67.80;;;;;;4931383;28;117414;-87
2020/12/01 12:55:38;;;;;;;;;;;5.70;67.80;;;;;;4930625;28;117461;-87
2020/12/01 12:58:04;;;;;;;;;;;5.70;67.80;;;;;;4947203;28;117571;-87
2020/12/01 13:00:32;;;;;;;;;;;5.70;67.80;;;;;;4929981;28;120121;-87
2020/12/01 13:02:58;;;;;;;;;;;5.70;67.80;;;;;;4931500;28;117283;-87
2020/12/01 13:05:23;;;;;;;;;;;5.70;67.80;;;;;;4931770;28;117914;-87
2020/12/01 13:07:49;;;;;;;;;;;5.70;67.80;;;;;;4930135;28;121248;-87
2020/12/01 13:10:14;;;;;;;;;;;5.70;67.80;;;;;;4929973;28;119496;-87
2020/12/01 13:12:40;;;;;;;;;;;5.70;67.80;;;;;;4931189;28;117360;-87
2020/12/01 13:15:06;;;;;;;;;;;5.70;67.90;;;;;;4931484;28;117465;-87
2020/12/01 13:17:31;;;;;;;;;;;5.70;67.90;;;;;;4930302;28;119806;-87
2020/12/01 13:19:57;;;;;;;;;;;5.70;67.90;;;;;;4929980;28;119200;-87
2020/12/01 13:22:22;;;;;;;;;;;5.70;68.50;;;;;;4931165;28;117530;-87
2020/12/01 13:24:48;;;;;;;;;;;5.70;67.90;;;;;;4931363;28;117836;-87
2020/12/01 13:27:13;;;;;;;;;;;5.70;67.90;;;;;;4946134;28;120178;-87
2020/12/01 13:29:39;;;;;;;;;;;5.70;67.90;;;;;;4929699;28;120447;-87
2020/12/01 13:32:04;;;;;;;;;;;5.70;68.00;;;;;;4930985;28;117553;-87
2020/12/01 13:34:30;;;;;;;;;;;5.70;68.00;;;;;;4931234;28;117388;-87
2020/12/01 13:36:55;;;;;;;;;;;5.70;68.00;;;;;;4930002;28;120227;-88
2020/12/01 13:39:21;;;;;;;;;;;5.70;68.00;;;;;;4929682;28;120901;-87
2020/12/01 13:41:52;;;;;;;;;;;5.70;68.00;;;;;;4930862;28;117549;-87
2020/12/01 13:44:18;;;;;;;;;;;5.70;68.00;;;;;;4930952;28;117819;-87
2020/12/01 13:46:44;;;;;;;;;;;5.70;68.00;;;;;;4929670;28;120051;-87
2020/12/01 13:49:13;;;;;;;;;;;5.70;68.00;;;;;;4928662;28;118927;-87
2020/12/01 13:51:38;;;;;;;;;;;5.70;68.00;;;;;;4930846;28;117577;-87
2020/12/01 13:54:04;;;;;;;;;;;5.70;68.00;;;;;;4930808;28;117470;-87
2020/12/01 13:56:30;;;;;;;;;;;5.70;68.00;;;;;;4929573;28;120044;-87
2020/12/01 13:58:55;;;;;;;;;;;5.70;68.00;;;;;;4929297;28;119709;-87
2020/12/01 14:01:21;;;;;;;;;;;5.70;68.00;;;;;;4930651;28;116620;-87
2020/12/01 14:03:46;;;;;;;;;;;5.70;68.00;;;;;;4930831;28;117464;-87
2020/12/01 14:06:14;;;;;;;;;;;5.70;68.00;;;;;;4929402;28;121692;-87
2020/12/01 14:08:40;;;;;;;;;;;5.70;68.10;;;;;;4928713;28;119263;-87
2020/12/01 14:11:05;;;;;;;;;;;5.70;68.10;;;;;;4930347;28;117320;-87
2020/12/01 14:13:31;;;;;;;;;;;5.70;68.10;;;;;;4930377;28;117507;-87
2020/12/01 14:15:56;;;;;;;;;;;5.70;68.10;;;;;;4929284;28;120094;-87
2020/12/01 14:18:22;;;;;;;;;;;5.70;68.10;;;;;;4929114;28;118933;-87
2020/12/01 14:20:47;;;;;;;;;;;5.70;68.10;;;;;;4946788;28;117248;-87
2020/12/01 14:23:13;;;;;;;;;;;5.70;68.10;;;;;;4930340;28;117882;-87
2020/12/01 14:25:38;;;;;;;;;;;5.70;68.10;;;;;;4929087;28;121616;-87
2020/12/01 14:28:04;;;;;;;;;;;5.70;68.10;;;;;;4929125;28;119902;-87
2020/12/01 14:30:29;;;;;;;;;;;5.70;68.20;;;;;;4946682;28;117393;-87
2020/12/01 14:32:55;;;;;;;;;;;5.70;68.20;;;;;;4930088;28;117802;-87
2020/12/01 14:35:24;;;;;;;;;;;5.70;68.20;;;;;;4929089;28;121960;-87
2020/12/01 14:37:53;;;;;;;;;;;5.70;68.20;;;;;;4929611;28;120095;-87
2020/12/01 14:40:19;;;;;;;;;;;5.70;68.20;;;;;;4929866;28;117397;-87
2020/12/01 14:42:44;;;;;;;;;;;5.70;68.20;;;;;;4930283;28;117718;-87
2020/12/01 14:45:09;;;;;;;;;;;5.70;68.20;;;;;;4929014;28;119926;-87
2020/12/01 14:47:38;;;;;;;;;;;5.70;68.20;;;;;;4928603;28;120322;-87
2020/12/01 14:50:07;;;;;;;;;;;5.70;68.20;;;;;;4945390;28;117549;-87
2020/12/01 14:52:37;;;;;;;;;;;5.70;68.20;;;;;;4945840;28;117768;-87
2020/12/01 14:55:03;;;;;;;;;;;5.70;68.20;;;;;;4945077;28;117766;-87
2020/12/01 14:57:51;;;;;;;;;;;5.70;68.20;;;;;;4944643;28;119667;-87
2020/12/01 15:00:29;;;;;;;;;;;5.70;68.30;;;;;;4929459;28;117498;-87
2020/12/01 15:03:17;;;;;;;;;;;5.70;68.30;;;;;;4946410;28;117292;-87
2020/12/01 15:05:49;;;;;;;;;;;5.70;68.30;;;;;;4944277;28;122105;-87
2020/12/01 15:08:15;;;;;;;;;;;5.70;68.20;;;;;;4928279;28;119532;-87
2020/12/01 15:10:46;;;;;;;;;;;5.70;68.30;;;;;;4945427;28;117586;-87
2020/12/01 15:13:11;;;;;;;;;;;5.70;68.30;;;;;;4929404;28;117765;-87
2020/12/01 15:15:38;;;;;;;;;;;5.70;68.40;;;;;;4928257;28;120979;-87
2020/12/01 15:18:05;;;;;;;;;;;5.70;68.30;;;;;;4928613;28;120391;-87
2020/12/01 15:20:31;;;;;;;;;;;5.70;68.40;;;;;;4931533;28;117497;-87
2020/12/01 15:23:03;;;;;;;;;;;5.70;68.40;;;;;;4932523;28;117530;-87
2020/12/01 15:25:29;;;;;;;;;;;5.70;68.40;;;;;;4931492;28;120121;-87
2020/12/01 15:28:05;;;;;;;;;;;5.70;68.40;;;;;;4931444;28;120434;-86
2020/12/01 15:30:30;;;;;;;;;;;5.70;68.40;;;;;;4932292;28;117507;-86
2020/12/01 15:32:56;;;;;;;;;;;5.70;68.40;;;;;;4949059;28;117977;-86
2020/12/01 15:35:26;;;;;;;;;;;5.70;68.40;;;;;;4931337;28;120420;-86
2020/12/01 15:37:54;;;;;;;;;;;5.70;68.40;;;;;;4947552;28;117584;-85
2020/12/01 15:40:40;;;;;;;;;;;5.70;68.40;;;;;;4931949;28;117818;-87
2020/12/01 15:43:07;;;;;;;;;;;5.70;68.50;;;;;;4932430;28;117851;-86
2020/12/01 15:45:33;;;;;;;;;;;5.70;68.50;;;;;;4931164;28;120521;-86
2020/12/01 15:47:58;;;;;;;;;;;5.70;68.50;;;;;;4930889;28;119082;-86
2020/12/01 15:50:24;;;;;;;;;;;5.70;68.50;;;;;;4931616;28;117572;-86
2020/12/01 15:52:56;;;;;;;;;;;5.70;68.60;;;;;;4932161;28;117866;-86
2020/12/01 15:55:31;;;;;;;;;;;5.70;68.80;;;;;;4930974;28;122118;-86
2020/12/01 15:57:57;;;;;;;;;;;5.70;68.80;;;;;;4930930;28;120725;-86
2020/12/01 16:00:41;;;;;;;;;;;5.70;68.90;;;;;;4948116;28;117691;-86
2020/12/01 16:03:22;;;;;;;;;;;5.70;69.10;;;;;;4948516;28;117867;-86
2020/12/01 16:05:48;;;;;;;;;;;5.70;69.20;;;;;;4931020;28;121186;-86
2020/12/01 16:08:20;;;;;;;;;;;5.80;69.30;;;;;;4930652;28;120933;-86
2020/12/01 16:11:06;;;;;;;;;;;5.80;69.50;;;;;;4948067;28;117352;-86
2020/12/01 16:13:46;;;;;;;;;;;5.80;69.60;;;;;;4917533;28;117893;-86
2020/12/01 16:16:27;;;;;;;;;;;5.80;69.80;;;;;;4930806;28;121380;-86
2020/12/01 16:18:54;;;;;;;;;;;5.80;70.00;;;;;;4946705;28;121093;-86
2020/12/01 16:21:22;;;;;;;;;;;5.80;70.60;;;;;;4931722;28;117563;-86
2020/12/01 16:23:55;;;;;;;;;;;5.80;70.10;;;;;;4948225;28;117577;-86
2020/12/01 16:26:26;;;;;;;;;;;5.80;70.30;;;;;;4930472;28;121661;-86
2020/12/01 16:28:52;;;;;;;;;;;5.80;70.40;;;;;;4930318;28;120856;-86
2020/12/01 16:31:18;;;;;;;;;;;5.80;70.60;;;;;;4931463;28;117635;-86
2020/12/01 16:33:43;;;;;;;;;;;5.80;70.60;;;;;;4948266;28;117911;-86
2020/12/01 16:36:09;;;;;;;;;;;5.80;70.80;;;;;;4930456;28;120265;-86
2020/12/01 16:38:34;;;;;;;;;;;5.80;71.00;;;;;;4930020;28;120445;-86
2020/12/01 16:41:00;;;;;;;;;;;5.80;71.00;;;;;;4947538;28;117565;-86
2020/12/01 16:43:34;;;;;;;;;;;5.80;71.10;;;;;;4947715;28;117516;-86
2020/12/01 16:46:33;;;;;;;;;;;5.80;71.20;;;;;;4946460;28;120515;-86
2020/12/01 16:49:00;;;;;;;;;;;5.80;71.20;;;;;;4913441;28;119572;-86
2020/12/01 16:51:34;;;;;;;;;;;5.80;71.40;;;;;;4955895;23;117860;-89
2020/12/01 16:54:04;;;;;;;;;;;5.80;71.40;;;;;;4950707;28;117498;-89
2020/12/01 16:56:29;;;;;;;;;;;5.90;71.50;;;;;;4949742;28;120465;-89
2020/12/01 16:58:55;;;;;;;;;;;5.80;71.50;;;;;;4949353;28;118837;-89
2020/12/01 17:01:29;;;;;;;;;;;5.90;71.80;;;;;;4963472;28;117529;-89
2020/12/01 17:04:04;;;;;;;;;;;5.80;71.90;;;;;;4966726;28;117877;-89
2020/12/01 17:06:48;;;;;;;;;;;5.90;71.80;;;;;;4965549;28;121212;-89
2020/12/01 17:09:15;;;;;;;;;;;5.90;72.00;;;;;;4965537;28;119545;-89
2020/12/01 17:12:01;;;;;;;;;;;5.90;72.00;;;;;;4950097;28;117668;-89
2020/12/01 17:14:27;;;;;;;;;;;5.90;72.00;;;;;;4950345;28;117684;-89
2020/12/01 17:17:07;;;;;;;;;;;5.90;72.10;;;;;;4949101;28;121383;-89
2020/12/01 17:19:33;;;;;;;;;;;5.90;72.10;;;;;;4965288;28;119312;-89
2020/12/01 17:22:01;;;;;;;;;;;5.90;72.10;;;;;;4967020;28;117603;-89
2020/12/01 17:24:27;;;;;;;;;;;5.90;72.30;;;;;;4950321;28;117867;-89
2020/12/01 17:26:52;;;;;;;;;;;5.90;72.30;;;;;;4949181;28;119935;-89
2020/12/01 17:29:21;;;;;;;;;;;5.90;72.40;;;;;;4948854;28;119204;-89
2020/12/01 17:31:50;;;;;;;;;;;5.90;72.50;;;;;;4950237;28;117420;-89
2020/12/01 17:34:16;;;;;;;;;;;5.90;72.60;;;;;;4950422;28;117823;-89
2020/12/01 17:36:49;;;;;;;;;;;5.90;72.50;;;;;;4965415;28;120122;-89
2020/12/01 17:39:24;;;;;;;;;;;5.90;72.50;;;;;;4949262;28;119920;-89
2020/12/01 17:42:07;;;;;;;;;;;5.90;72.70;;;;;;4966444;28;117458;-89
2020/12/01 17:44:45;;;;;;;;;;;5.80;72.80;;;;;;4951287;28;117463;-89
2020/12/01 17:47:14;;;;;;;;;;;5.80;73.00;;;;;;4966336;28;120055;-89
2020/12/01 17:49:46;;;;;;;;;;;5.80;73.00;;;;;;4964977;28;119455;-89
2020/12/01 17:52:14;;;;;;;;;;;5.90;73.30;;;;;;4951712;28;117525;-89
2020/12/01 17:54:40;;;;;;;;;;;5.90;73.20;;;;;;4950808;28;117802;-89
2020/12/01 17:57:15;;;;;;;;;;;5.90;73.40;;;;;;4949388;28;121053;-89
2020/12/01 17:59:40;;;;;;;;;;;5.90;73.40;;;;;;4949265;28;119335;-89
2020/12/01 18:02:08;;;;;;;;;;;5.90;73.30;;;;;;4949873;28;117491;-89
2020/12/01 18:04:34;;;;;;;;;;;5.90;73.30;;;;;;4950061;28;118209;-89
2020/12/01 18:07:00;;;;;;;;;;;5.90;73.40;;;;;;4948666;28;120932;-89
2020/12/01 18:09:25;;;;;;;;;;;5.90;73.30;;;;;;4948292;28;120350;-89
2020/12/01 18:11:51;;;;;;;;;;;5.90;73.50;;;;;;4949825;28;117268;-89
2020/12/01 18:14:19;;;;;;;;;;;5.90;73.40;;;;;;4966120;28;117322;-89
2020/12/01 18:17:03;;;;;;;;;;;5.90;73.40;;;;;;4948499;28;120422;-89
2020/12/01 18:19:48;;;;;;;;;;;5.90;73.40;;;;;;4964321;28;119281;-89
2020/12/01 18:22:21;;;;;;;;;;;5.90;73.60;;;;;;4965669;28;117686;-89
2020/12/01 18:25:06;;;;;;;;;;;5.90;73.50;;;;;;4949472;28;117318;-89
2020/12/01 18:27:36;;;;;;;;;;;5.90;73.60;;;;;;4964416;28;120192;-89
2020/12/01 18:30:01;;;;;;;;;;;5.90;73.70;;;;;;4947879;28;119557;-89
2020/12/01 18:32:47;;;;;;;;;;;5.90;73.60;;;;;;4965492;28;117481;-89
2020/12/01 18:35:23;;;;;;;;;;;5.90;73.70;;;;;;4966530;28;117803;-89
2020/12/01 18:37:49;;;;;;;;;;;5.90;73.80;;;;;;4948250;28;121164;-89
2020/12/01 18:40:16;;;;;;;;;;;5.90;73.70;;;;;;4947893;28;119509;-89
2020/12/01 18:42:57;;;;;;;;;;;5.90;73.60;;;;;;4949033;28;117498;-89
2020/12/01 18:45:25;;;;;;;;;;;5.90;73.70;;;;;;4948895;28;117783;-89
2020/12/01 18:47:51;;;;;;;;;;;5.90;73.70;;;;;;4947818;28;121090;-89
2020/12/01 18:50:16;;;;;;;;;;;5.90;73.80;;;;;;4947589;28;119313;-89
2020/12/01 18:52:42;;;;;;;;;;;5.90;73.70;;;;;;4948826;28;117451;-89
2020/12/01 18:55:07;;;;;;;;;;;5.90;73.80;;;;;;4951127;28;117446;-89
2020/12/01 18:57:33;;;;;;;;;;;5.90;73.80;;;;;;4951315;28;120127;-89
2020/12/01 18:59:59;;;;;;;;;;;5.90;74.00;;;;;;4951132;28;119745;-89
2020/12/01 19:02:24;;;;;;;;;;;5.90;74.00;;;;;;4952509;28;117698;-89
2020/12/01 19:04:50;;;;;;;;;;;5.90;74.00;;;;;;4952501;28;117513;-89
2020/12/01 19:07:15;;;;;;;;;;;5.90;74.00;;;;;;4951042;28;121511;-89
2020/12/01 19:09:41;;;;;;;;;;;5.90;74.00;;;;;;4951031;28;119111;-89
2020/12/01 19:12:06;;;;;;;;;;;5.90;74.10;;;;;;4952427;28;117391;-89
2020/12/01 19:14:32;;;;;;;;;;;5.90;74.10;;;;;;4952194;28;117521;-89
2020/12/01 19:16:58;;;;;;;;;;;5.90;74.20;;;;;;4951030;28;119951;-89
2020/12/01 19:19:24;;;;;;;;;;;5.90;74.00;;;;;;4950951;28;118827;-89
2020/12/01 19:21:50;;;;;;;;;;;5.90;74.10;;;;;;4952269;28;117625;-89
2020/12/01 19:24:16;;;;;;;;;;;5.90;74.30;;;;;;4952278;28;117344;-89
2020/12/01 19:26:41;;;;;;;;;;;5.90;74.10;;;;;;4950974;28;120132;-89
2020/12/01 19:29:07;;;;;;;;;;;5.90;74.30;;;;;;4950607;28;118938;-89
2020/12/01 19:31:32;;;;;;;;;;;5.90;74.20;;;;;;4951639;28;117331;-89
2020/12/01 19:33:58;;;;;;;;;;;5.90;74.30;;;;;;4951756;28;117831;-89
2020/12/01 19:36:23;;;;;;;;;;;5.90;74.50;;;;;;4950624;28;121175;-89
2020/12/01 19:38:49;;;;;;;;;;;5.90;74.40;;;;;;4950575;28;120172;-89
2020/12/01 19:41:14;;;;;;;;;;;5.90;74.40;;;;;;4951472;28;117857;-89
2020/12/01 19:43:41;;;;;;;;;;;5.90;74.30;;;;;;4951776;28;117742;-89
2020/12/01 19:46:06;;;;;;;;;;;5.90;74.50;;;;;;4950680;28;120187;-89
2020/12/01 19:48:32;;;;;;;;;;;5.90;74.40;;;;;;4950636;28;120104;-89
2020/12/01 19:50:57;;;;;;;;;;;5.90;74.40;;;;;;4950909;28;117826;-89
2020/12/01 19:53:23;;;;;;;;;;;5.90;74.70;;;;;;4951587;28;117858;-89
2020/12/01 19:55:48;;;;;;;;;;;5.90;74.60;;;;;;4950402;28;121003;-89
2020/12/01 19:58:14;;;;;;;;;;;5.90;74.50;;;;;;4950200;28;120388;-89